メインページ
METAR-TAF:

METAR-TAF

空港 :

クアラルンプール, マレーシア

クアラルンプール国際空港

緯度: 02-44N, 経度: 101-42E, 海抜: 21m

現時点の気象観測

当レポートは30分前の03:30(UTC)に作成
変向風 2kt
気温 26°C
湿度 94%
気圧 1012 hPa
視程: 8000m
高度1000ftの雲はほとんどない
高度1700ftの雲はほとんどない, 積乱雲.
高度14000ftの雲は散在している
高度27000ftの千切れ雲あり
近辺でにわか雨

METAR: WMKK 230330Z VRB02KT 8000 VCSH FEW010 FEW017CB SCT140 BKN270 26/25 Q1012 NOSIG

時間: 12:00 (04:00 UTC)

予報

当レポートは5時間0分前の23:00(UTC)に作成
予報は23日の 00時(UTC)から 24日の 06時(UTC)まで有効
の風 5kt
視程10km以上
高度1700ftの雲はほとんどない, 積乱雲.
高度14000ftの雲は散在している
高度28000ftの千切れ雲あり
23日の 00時(UTC)から 23日の 04時(UTC)まで一時的に
視程: 5000m
高度1600ftの雲はほとんどない, 積乱雲.
高度1800ftの雲は散在している
激しい雷雨, 雨

TAF: WMKK 222300Z 2300/2406 08005KT 9999 FEW017CB SCT140 BKN280 TEMPO 2300/2304 5000 TSRA FEW016CB SCT018

4,000以上の空港の気象観測と天気予報(METAR報とTAF報)

利用可能な観測所は地図上に黄色い丸と赤い丸で示す。

丸の上にカーソルを重ねると観測所名を参照できる。

次にクリックすると気象観測と天気予報を参照できる。

マップの切り替え:黒色「×」印の緑ボタンをクリックして拡大、「-」印の緑ボタンをクリックして縮小、緑色の三角印をクリックして隣りの地図に切り替え


METAR-TAF: